createdAt,value
2019-03-26T00:00:11.368Z,1.83
2019-03-26T00:01:11.288Z,1.84
2019-03-26T00:02:11.210Z,1.80
2019-03-26T00:03:11.166Z,1.79
2019-03-26T00:04:11.040Z,1.79
2019-03-26T00:05:10.958Z,1.76
2019-03-26T00:06:10.875Z,1.74
2019-03-26T00:07:10.832Z,1.74
2019-03-26T00:08:10.771Z,1.66
2019-03-26T00:09:10.733Z,1.64
2019-03-26T00:10:10.638Z,1.66
2019-03-26T00:11:10.512Z,1.65
2019-03-26T00:12:10.385Z,1.61
2019-03-26T00:13:10.376Z,1.68
2019-03-26T00:14:10.220Z,1.68
2019-03-26T00:15:10.114Z,1.61
2019-03-26T00:16:10.066Z,1.61
2019-03-26T00:17:10.000Z,1.59
2019-03-26T00:18:09.984Z,1.62
2019-03-26T00:19:09.800Z,1.61
2019-03-26T00:20:09.757Z,1.61
2019-03-26T00:21:09.695Z,1.52
2019-03-26T00:22:09.612Z,1.54
2019-03-26T00:23:09.521Z,1.50
2019-03-26T00:24:09.485Z,1.50
2019-03-26T00:25:09.387Z,1.43
2019-03-26T00:26:09.366Z,1.48
2019-03-26T00:27:09.198Z,1.46
2019-03-26T00:28:09.148Z,1.52
2019-03-26T00:29:09.063Z,1.50
2019-03-26T00:30:08.916Z,1.52
2019-03-26T00:31:08.872Z,1.46
2019-03-26T00:32:08.746Z,1.54
2019-03-26T00:33:08.677Z,1.50
2019-03-26T00:34:18.659Z,1.48
2019-03-26T00:35:08.467Z,1.54
2019-03-26T00:36:08.368Z,1.41
2019-03-26T00:37:08.326Z,1.29
2019-03-26T00:38:08.264Z,1.23
2019-03-26T00:39:08.122Z,1.18
2019-03-26T00:40:08.027Z,1.20
2019-03-26T00:41:07.946Z,1.11
2019-03-26T00:42:07.929Z,1.11
2019-03-26T00:43:07.783Z,1.20
2019-03-26T00:44:07.706Z,1.19
2019-03-26T00:45:07.631Z,1.20
2019-03-26T00:46:07.556Z,1.19
2019-03-26T00:47:07.463Z,1.22
2019-03-26T00:48:07.360Z,1.28
2019-03-26T00:49:07.341Z,1.22
2019-03-26T00:50:07.196Z,1.23
2019-03-26T00:51:07.114Z,1.28
2019-03-26T00:52:07.071Z,1.32
2019-03-26T00:53:06.995Z,1.29
2019-03-26T00:54:06.864Z,1.34
2019-03-26T00:55:06.775Z,1.36
2019-03-26T00:56:06.694Z,1.40
2019-03-26T00:57:06.610Z,1.40
2019-03-26T00:58:06.527Z,1.41
2019-03-26T00:59:06.487Z,1.37
2019-03-26T01:00:06.400Z,1.34
2019-03-26T01:01:06.274Z,1.26
2019-03-26T01:02:06.222Z,1.26
2019-03-26T01:03:06.153Z,1.22
2019-03-26T01:04:06.023Z,1.25
2019-03-26T01:05:05.947Z,1.29
2019-03-26T01:06:05.905Z,1.30
2019-03-26T01:07:05.771Z,1.36
2019-03-26T01:08:05.738Z,1.29
2019-03-26T01:09:05.662Z,1.28
2019-03-26T01:10:05.528Z,1.22
2019-03-26T01:11:05.497Z,1.28
2019-03-26T01:12:05.359Z,1.29
2019-03-26T01:13:05.326Z,1.29
2019-03-26T01:14:05.210Z,1.28
2019-03-26T01:15:05.148Z,1.26
2019-03-26T01:16:05.016Z,1.22
2019-03-26T01:17:04.992Z,1.18
2019-03-26T01:18:04.856Z,1.16
2019-03-26T01:19:04.803Z,1.15
2019-03-26T01:20:04.701Z,1.18
2019-03-26T01:21:04.659Z,1.22
2019-03-26T01:22:04.578Z,1.11
2019-03-26T01:23:04.480Z,1.07
2019-03-26T01:24:04.389Z,1.07
2019-03-26T01:25:04.333Z,1.02
2019-03-26T01:26:04.187Z,1.02
2019-03-26T01:27:04.118Z,1.05
2019-03-26T01:28:04.040Z,1.02
2019-03-26T01:29:03.938Z,1.10
2019-03-26T01:30:03.997Z,1.11
2019-03-26T01:31:03.897Z,1.04
2019-03-26T01:32:03.746Z,1.05
2019-03-26T01:33:03.688Z,1.04
2019-03-26T01:34:03.574Z,1.05
2019-03-26T01:35:03.499Z,1.10
2019-03-26T01:36:03.443Z,0.98
2019-03-26T01:37:03.380Z,0.94
2019-03-26T01:38:03.183Z,0.97
2019-03-26T01:39:03.304Z,0.98
2019-03-26T01:40:03.078Z,0.94
2019-03-26T01:41:03.018Z,1.01
2019-03-26T01:42:02.838Z,0.97
2019-03-26T01:43:02.834Z,0.94
2019-03-26T01:44:02.715Z,1.01
2019-03-26T01:45:02.599Z,0.98
2019-03-26T01:46:02.577Z,1.00
2019-03-26T01:47:02.433Z,0.98
2019-03-26T01:48:02.382Z,0.94
2019-03-26T01:49:02.259Z,0.94
2019-03-26T01:50:02.216Z,1.01
2019-03-26T01:51:02.158Z,0.94
2019-03-26T01:52:02.069Z,1.02
2019-03-26T01:53:01.958Z,1.02
2019-03-26T01:54:01.843Z,0.92
2019-03-26T01:55:01.805Z,0.80
2019-03-26T01:56:01.726Z,0.71
2019-03-26T01:57:01.602Z,0.59
2019-03-26T01:58:01.521Z,0.50
2019-03-26T01:59:01.411Z,0.57
2019-03-26T02:00:01.346Z,0.61
2019-03-26T02:01:01.253Z,0.64
2019-03-26T02:02:01.200Z,0.57
2019-03-26T02:03:01.087Z,0.62
2019-03-26T02:04:01.004Z,0.57
2019-03-26T02:05:00.974Z,0.61
2019-03-26T02:06:02.581Z,0.66
2019-03-26T02:07:00.782Z,0.69
2019-03-26T02:08:00.664Z,0.66
2019-03-26T02:09:00.594Z,0.74
2019-03-26T02:10:00.580Z,0.80
2019-03-26T02:11:00.414Z,0.75
2019-03-26T02:12:00.316Z,0.74
2019-03-26T02:13:00.247Z,0.79
2019-03-26T02:14:00.220Z,0.72
2019-03-26T02:15:00.147Z,0.77
2019-03-26T02:16:00.019Z,0.80
2019-03-26T02:16:59.915Z,0.80
2019-03-26T02:17:59.844Z,0.79
2019-03-26T02:18:59.782Z,0.74
2019-03-26T02:19:59.652Z,0.72
2019-03-26T02:20:59.592Z,0.62
2019-03-26T02:21:59.506Z,0.65
2019-03-26T02:22:59.407Z,0.66
2019-03-26T02:23:59.359Z,0.62
2019-03-26T02:24:59.288Z,0.62
2019-03-26T02:25:59.178Z,0.64
2019-03-26T02:26:59.128Z,0.62
2019-03-26T02:27:58.983Z,0.57
2019-03-26T02:28:58.965Z,0.57
2019-03-26T02:29:58.819Z,0.68
2019-03-26T02:30:58.725Z,0.59
2019-03-26T02:31:58.693Z,0.59
2019-03-26T02:32:58.614Z,0.59
2019-03-26T02:33:58.556Z,0.62
2019-03-26T02:34:58.389Z,0.69
2019-03-26T02:35:58.350Z,0.64
2019-03-26T02:36:58.245Z,0.66
2019-03-26T02:37:58.159Z,0.59
2019-03-26T02:38:58.049Z,0.59
2019-03-26T02:39:57.964Z,0.62
2019-03-26T02:40:57.902Z,0.61
2019-03-26T02:41:57.845Z,0.57
2019-03-26T02:42:57.719Z,0.53
2019-03-26T02:43:57.671Z,0.57
2019-03-26T02:44:57.564Z,0.59
2019-03-26T02:45:57.464Z,0.50
2019-03-26T02:46:57.431Z,0.53
2019-03-26T02:47:57.332Z,0.47
2019-03-26T02:48:57.252Z,0.40
2019-03-26T02:49:57.130Z,0.40
2019-03-26T02:50:57.058Z,0.47
2019-03-26T02:51:56.955Z,0.40
2019-03-26T02:52:56.915Z,0.45
2019-03-26T02:53:56.796Z,0.49
2019-03-26T02:54:56.706Z,0.49
2019-03-26T02:55:56.686Z,0.47
2019-03-26T02:56:56.594Z,0.35
2019-03-26T02:57:56.493Z,0.22
2019-03-26T02:58:56.374Z,0.11
2019-03-26T02:59:56.416Z,0.07
2019-03-26T03:00:56.247Z,-0.04
2019-03-26T03:01:56.174Z,-0.05
2019-03-26T03:02:56.087Z,-0.15
2019-03-26T03:03:56.193Z,-0.10
2019-03-26T03:04:55.916Z,-0.08
2019-03-26T03:05:55.887Z,-0.12
2019-03-26T03:06:55.788Z,-0.08
2019-03-26T03:07:55.658Z,0.03
2019-03-26T03:08:55.631Z,0.03
2019-03-26T03:09:55.555Z,-0.01
2019-03-26T03:10:55.447Z,0.07
2019-03-26T03:11:55.404Z,0.09
2019-03-26T03:12:55.195Z,0.07
2019-03-26T03:13:55.218Z,0.04
2019-03-26T03:14:55.044Z,0.01
2019-03-26T03:15:55.142Z,-0.04
2019-03-26T03:16:54.908Z,-0.11
2019-03-26T03:17:54.874Z,-0.05
2019-03-26T03:18:54.844Z,-0.20
2019-03-26T03:19:54.701Z,-0.28
2019-03-26T03:20:54.515Z,-0.23
2019-03-26T03:21:54.447Z,-0.23
2019-03-26T03:22:54.356Z,-0.25
2019-03-26T03:23:54.366Z,-0.20
2019-03-26T03:24:54.188Z,-0.11
2019-03-26T03:25:54.194Z,-0.10
2019-03-26T03:26:54.094Z,-0.07
2019-03-26T03:27:54.010Z,0.03
2019-03-26T03:28:53.928Z,0.03
2019-03-26T03:29:53.840Z,0.09
2019-03-26T03:30:53.706Z,0.04
2019-03-26T03:31:53.704Z,0.10
2019-03-26T03:32:53.550Z,0.10
2019-03-26T03:33:53.473Z,0.10
2019-03-26T03:34:53.346Z,0.11
2019-03-26T03:35:53.363Z,0.14
2019-03-26T03:36:53.224Z,0.21
2019-03-26T03:37:53.087Z,0.17
2019-03-26T03:38:53.055Z,0.22
2019-03-26T03:39:52.973Z,0.25
2019-03-26T03:40:52.822Z,0.22
2019-03-26T03:41:52.754Z,0.29
2019-03-26T03:42:52.658Z,0.29
2019-03-26T03:43:52.566Z,0.36
2019-03-26T03:44:52.529Z,0.27
2019-03-26T03:45:52.412Z,0.36
2019-03-26T03:46:52.318Z,0.28
2019-03-26T03:47:52.239Z,0.34
2019-03-26T03:48:52.152Z,0.21
2019-03-26T03:49:52.069Z,0.32
2019-03-26T03:50:51.984Z,0.28
2019-03-26T03:51:51.899Z,0.34
2019-03-26T03:52:51.854Z,0.31
2019-03-26T03:53:51.772Z,0.28
2019-03-26T03:54:51.693Z,0.27
2019-03-26T03:55:51.610Z,0.27
2019-03-26T03:56:51.491Z,0.28
2019-03-26T03:57:53.025Z,0.34
2019-03-26T03:58:51.356Z,0.31
2019-03-26T03:59:51.276Z,0.39
2019-03-26T04:00:51.150Z,0.46
2019-03-26T04:01:51.047Z,0.45
2019-03-26T04:02:51.022Z,0.42
2019-03-26T04:03:50.878Z,0.46
2019-03-26T04:04:50.799Z,0.43
2019-03-26T04:06:07.800Z,0.47
2019-03-26T04:06:50.675Z,0.45
2019-03-26T04:07:50.597Z,0.45
2019-03-26T04:08:50.471Z,0.43
2019-03-26T04:09:50.484Z,0.42
2019-03-26T04:10:50.373Z,0.52
2019-03-26T04:11:50.225Z,0.42
2019-03-26T04:12:50.215Z,0.45
2019-03-26T04:13:50.100Z,0.56
2019-03-26T04:14:50.032Z,0.50
2019-03-26T04:15:49.933Z,0.52
2019-03-26T04:16:49.800Z,0.61
2019-03-26T04:17:49.701Z,0.57
2019-03-26T04:18:49.659Z,0.62
2019-03-26T04:19:49.538Z,0.65
2019-03-26T04:20:49.450Z,0.65
2019-03-26T04:21:49.369Z,0.68
2019-03-26T04:22:49.280Z,0.64
2019-03-26T04:23:49.194Z,0.64
2019-03-26T04:24:49.110Z,0.66
2019-03-26T04:25:49.027Z,0.72
2019-03-26T04:26:48.944Z,0.59
2019-03-26T04:27:48.863Z,0.64
2019-03-26T04:28:48.856Z,0.66
2019-03-26T04:29:48.712Z,0.68
2019-03-26T04:30:48.662Z,0.74
2019-03-26T04:31:48.534Z,0.74
2019-03-26T04:32:48.495Z,0.75
2019-03-26T04:33:48.390Z,0.75
2019-03-26T04:34:50.041Z,0.75
2019-03-26T04:35:48.230Z,0.90
2019-03-26T04:36:48.156Z,0.86
2019-03-26T04:37:48.079Z,0.83
2019-03-26T04:38:48.005Z,0.93
2019-03-26T04:39:47.913Z,0.93
2019-03-26T04:40:47.829Z,0.93
2019-03-26T04:41:47.725Z,0.97
2019-03-26T04:42:47.665Z,0.92
2019-03-26T04:43:47.564Z,0.98
2019-03-26T04:44:47.501Z,0.92
2019-03-26T04:45:47.344Z,0.94
2019-03-26T04:46:47.255Z,1.00
2019-03-26T04:47:47.165Z,1.04
2019-03-26T04:48:47.093Z,0.94
2019-03-26T04:49:47.043Z,1.04
2019-03-26T04:50:46.920Z,1.11
2019-03-26T04:51:46.833Z,1.05
2019-03-26T04:52:46.751Z,1.15
2019-03-26T04:53:46.693Z,1.16
2019-03-26T04:54:46.585Z,1.15
2019-03-26T04:55:46.536Z,1.10
2019-03-26T04:56:46.414Z,1.19
2019-03-26T04:57:46.332Z,1.19
2019-03-26T04:58:46.249Z,1.12
2019-03-26T04:59:46.170Z,1.15
2019-03-26T05:00:46.079Z,1.07
2019-03-26T05:01:45.988Z,1.12
2019-03-26T05:02:45.903Z,1.19
2019-03-26T05:03:45.858Z,1.16
2019-03-26T05:04:45.749Z,1.08
2019-03-26T05:05:45.656Z,1.12
2019-03-26T05:06:45.564Z,1.12
2019-03-26T05:07:45.492Z,1.12
2019-03-26T05:08:45.448Z,1.16
2019-03-26T05:09:45.380Z,1.10
2019-03-26T05:10:45.270Z,1.12
2019-03-26T05:11:45.212Z,1.08
2019-03-26T05:12:45.115Z,1.15
2019-03-26T05:13:45.026Z,1.10
2019-03-26T05:14:44.949Z,1.08
2019-03-26T05:15:44.814Z,1.10
2019-03-26T05:16:44.797Z,1.12
2019-03-26T05:17:44.652Z,1.18
2019-03-26T05:18:44.595Z,1.15
2019-03-26T05:19:44.544Z,1.18
2019-03-26T05:20:44.397Z,1.12
2019-03-26T05:21:44.310Z,1.18
2019-03-26T05:22:44.227Z,1.11
2019-03-26T05:23:44.141Z,1.11
2019-03-26T05:24:44.061Z,1.18
2019-03-26T05:25:43.975Z,1.16
2019-03-26T05:26:43.970Z,1.16
2019-03-26T05:27:45.678Z,1.18
2019-03-26T05:28:43.860Z,1.11
2019-03-26T05:29:43.707Z,1.10
2019-03-26T05:30:43.625Z,1.08
2019-03-26T05:31:43.542Z,1.08
2019-03-26T05:32:43.426Z,1.11
2019-03-26T05:33:43.300Z,1.10
2019-03-26T05:34:43.266Z,1.19
2019-03-26T05:35:43.236Z,1.11
2019-03-26T05:36:51.203Z,1.16
2019-03-26T05:37:42.962Z,1.12
2019-03-26T05:38:42.938Z,1.23
2019-03-26T05:39:42.835Z,1.16
2019-03-26T05:40:42.766Z,1.26
2019-03-26T05:41:42.624Z,1.28
2019-03-26T05:42:42.537Z,1.25
2019-03-26T05:43:42.496Z,1.22
2019-03-26T05:44:42.377Z,1.25
2019-03-26T05:45:42.287Z,1.22
2019-03-26T05:46:42.210Z,1.25
2019-03-26T05:47:42.133Z,1.26
2019-03-26T05:48:42.060Z,1.26
2019-03-26T05:49:42.044Z,1.26
2019-03-26T05:50:41.932Z,1.23
2019-03-26T05:51:41.834Z,1.25
2019-03-26T05:52:41.715Z,1.30
2019-03-26T05:53:41.630Z,1.30
2019-03-26T05:54:41.542Z,1.37
2019-03-26T05:55:41.453Z,1.30
2019-03-26T05:56:41.411Z,1.36
2019-03-26T05:57:41.276Z,1.38
2019-03-26T05:58:41.248Z,1.37
2019-03-26T05:59:41.109Z,1.36
2019-03-26T06:00:41.186Z,1.38
2019-03-26T06:01:40.995Z,1.34
2019-03-26T06:02:40.903Z,1.41
2019-03-26T06:03:40.781Z,1.43
2019-03-26T06:04:40.737Z,1.54
2019-03-26T06:05:40.632Z,1.47
2019-03-26T06:06:40.525Z,1.44
2019-03-26T06:07:40.435Z,1.52
2019-03-26T06:08:40.363Z,1.54
2019-03-26T06:09:40.276Z,1.50
2019-03-26T06:10:40.191Z,1.54
2019-03-26T06:11:40.111Z,1.55
2019-03-26T06:12:40.120Z,1.65
2019-03-26T06:13:39.940Z,1.61
2019-03-26T06:14:39.851Z,1.62
2019-03-26T06:15:39.771Z,1.62
2019-03-26T06:16:39.704Z,1.68
2019-03-26T06:17:39.654Z,1.72
2019-03-26T06:18:39.522Z,1.68
2019-03-26T06:19:39.439Z,1.69
2019-03-26T06:20:39.353Z,1.68
2019-03-26T06:21:39.268Z,1.66
2019-03-26T06:22:39.250Z,1.62
2019-03-26T06:23:39.160Z,1.72
2019-03-26T06:24:39.018Z,1.69
2019-03-26T06:25:38.983Z,1.62
2019-03-26T06:26:38.854Z,1.76
2019-03-26T06:27:38.767Z,1.79
2019-03-26T06:28:38.685Z,1.84
2019-03-26T06:29:38.596Z,1.90
2019-03-26T06:30:38.509Z,1.90
2019-03-26T06:31:38.427Z,1.87
2019-03-26T06:32:38.344Z,2.03
2019-03-26T06:33:38.305Z,1.98
2019-03-26T06:34:38.177Z,1.99
2019-03-26T06:35:38.110Z,1.98
2019-03-26T06:36:38.071Z,1.95
2019-03-26T06:37:37.928Z,1.99
2019-03-26T06:38:37.853Z,1.95
2019-03-26T06:39:37.751Z,1.99
2019-03-26T06:40:37.671Z,2.01
2019-03-26T06:41:37.597Z,2.10
2019-03-26T06:42:37.500Z,2.10
2019-03-26T06:43:37.433Z,2.12
2019-03-26T06:44:37.352Z,2.06
2019-03-26T06:45:37.254Z,2.13
2019-03-26T06:46:37.200Z,2.12
2019-03-26T06:47:37.086Z,2.01
2019-03-26T06:48:37.002Z,2.10
2019-03-26T06:49:36.934Z,2.03
2019-03-26T06:50:36.838Z,2.09
2019-03-26T06:51:36.819Z,2.10
2019-03-26T06:52:36.702Z,2.13
2019-03-26T06:53:36.632Z,2.13
2019-03-26T06:54:36.500Z,2.12
2019-03-26T06:55:36.458Z,2.09
2019-03-26T06:56:36.338Z,2.23
2019-03-26T06:57:36.274Z,2.21
2019-03-26T06:58:36.222Z,2.21
2019-03-26T06:59:36.087Z,2.21
2019-03-26T07:00:36.039Z,2.21
2019-03-26T07:01:35.971Z,2.21
2019-03-26T07:02:35.843Z,2.26
2019-03-26T07:03:35.771Z,2.28
2019-03-26T07:04:35.663Z,2.26
2019-03-26T07:05:35.623Z,2.31
2019-03-26T07:06:35.556Z,2.34
2019-03-26T07:07:35.418Z,2.34
2019-03-26T07:08:35.346Z,2.41
2019-03-26T07:09:35.300Z,2.30
2019-03-26T07:10:35.213Z,2.38
2019-03-26T07:11:35.094Z,2.41
2019-03-26T07:12:34.994Z,2.39
2019-03-26T07:13:34.918Z,2.55
2019-03-26T07:14:34.931Z,2.49
2019-03-26T07:15:34.767Z,2.60
2019-03-26T07:16:34.660Z,2.59
2019-03-26T07:17:34.595Z,2.48
2019-03-26T07:18:34.606Z,2.57
2019-03-26T07:19:34.465Z,2.59
2019-03-26T07:20:34.334Z,2.60
2019-03-26T07:21:34.348Z,2.68
2019-03-26T07:22:34.227Z,2.73
2019-03-26T07:23:34.118Z,2.67
2019-03-26T07:24:34.068Z,2.68
2019-03-26T07:25:33.996Z,2.73
2019-03-26T07:26:33.900Z,2.78
2019-03-26T07:27:33.806Z,2.81
2019-03-26T07:28:33.701Z,2.80
2019-03-26T07:29:33.680Z,2.81
2019-03-26T07:30:33.518Z,2.88
2019-03-26T07:31:33.425Z,2.93
2019-03-26T07:32:33.472Z,2.95
2019-03-26T07:33:33.318Z,2.99
2019-03-26T07:34:33.240Z,2.96
2019-03-26T07:35:33.095Z,3.06
2019-03-26T07:36:33.067Z,3.07
2019-03-26T07:37:44.463Z,3.17
2019-03-26T07:38:32.850Z,3.17
2019-03-26T07:39:32.784Z,3.17
2019-03-26T07:40:32.734Z,3.29
2019-03-26T07:41:32.655Z,3.37
2019-03-26T07:42:32.676Z,3.39
2019-03-26T07:43:32.563Z,3.54
2019-03-26T07:44:32.386Z,3.56
2019-03-26T07:45:32.278Z,3.59
2019-03-26T07:46:32.194Z,3.56
2019-03-26T07:47:32.169Z,3.68
2019-03-26T07:48:32.102Z,3.62
2019-03-26T07:49:32.059Z,3.75
2019-03-26T07:50:31.884Z,3.82
2019-03-26T07:51:31.946Z,3.82
2019-03-26T07:52:31.712Z,3.79
2019-03-26T07:53:31.707Z,3.84
2019-03-26T07:54:32.701Z,4.00
2019-03-26T07:55:31.489Z,4.02
2019-03-26T07:56:31.444Z,4.00
2019-03-26T07:57:31.408Z,4.02
2019-03-26T07:58:33.172Z,4.11
2019-03-26T07:59:31.167Z,4.10
2019-03-26T08:00:31.087Z,4.22
2019-03-26T08:01:30.995Z,4.20
2019-03-26T08:02:30.968Z,4.19
2019-03-26T08:03:30.847Z,4.28
2019-03-26T08:04:30.731Z,4.36
2019-03-26T08:05:30.634Z,4.36
2019-03-26T08:06:30.572Z,4.47
2019-03-26T08:07:30.515Z,4.55
2019-03-26T08:08:30.449Z,4.54
2019-03-26T08:09:31.839Z,4.61
2019-03-26T08:10:30.258Z,4.69
2019-03-26T08:11:30.158Z,4.76
2019-03-26T08:12:32.730Z,4.76
2019-03-26T08:13:29.998Z,4.80
2019-03-26T08:14:29.950Z,4.87
2019-03-26T08:15:29.865Z,4.85
2019-03-26T08:16:29.773Z,4.99
2019-03-26T08:17:29.659Z,5.08
2019-03-26T08:18:29.640Z,5.10
2019-03-26T08:19:29.488Z,5.11
2019-03-26T08:20:29.482Z,5.18
2019-03-26T08:21:29.331Z,5.23
2019-03-26T08:22:29.232Z,5.28
2019-03-26T08:23:29.152Z,5.34
2019-03-26T08:24:29.169Z,5.35
2019-03-26T08:25:29.047Z,5.38
2019-03-26T08:26:28.965Z,5.42
2019-03-26T08:27:28.886Z,5.59
2019-03-26T08:28:28.760Z,5.50
2019-03-26T08:29:28.733Z,5.67
2019-03-26T08:30:28.658Z,5.67
2019-03-26T08:31:28.555Z,5.71
2019-03-26T08:32:28.469Z,5.77
2019-03-26T08:33:28.406Z,5.85
2019-03-26T08:34:28.287Z,5.81
2019-03-26T08:35:28.307Z,5.90
2019-03-26T08:36:28.118Z,6.04
2019-03-26T08:37:27.982Z,6.10
2019-03-26T08:38:27.929Z,6.13
2019-03-26T08:39:27.860Z,6.18
2019-03-26T08:40:27.877Z,6.18
2019-03-26T08:41:27.818Z,6.29
2019-03-26T08:42:27.624Z,6.33
2019-03-26T08:43:27.651Z,6.39
2019-03-26T08:44:27.449Z,6.37
2019-03-26T08:45:27.382Z,6.42
2019-03-26T08:46:27.309Z,6.45
2019-03-26T08:47:27.208Z,6.52
2019-03-26T08:48:27.180Z,6.63
2019-03-26T08:49:30.686Z,6.70
2019-03-26T08:50:26.974Z,6.99
2019-03-26T08:51:26.873Z,7.17
2019-03-26T08:52:26.762Z,7.29
2019-03-26T08:53:26.744Z,7.60
2019-03-26T08:54:26.671Z,7.70
2019-03-26T08:55:26.594Z,7.82
2019-03-26T08:56:26.527Z,7.82
2019-03-26T08:57:26.442Z,7.81
2019-03-26T08:58:26.321Z,8.01
2019-03-26T08:59:26.257Z,8.24
2019-03-26T09:00:26.093Z,8.42
2019-03-26T09:01:26.042Z,8.58
2019-03-26T09:02:25.995Z,8.75
2019-03-26T09:03:25.934Z,8.98
2019-03-26T09:04:27.154Z,9.09
2019-03-26T09:05:25.694Z,9.06
2019-03-26T09:06:25.725Z,9.16
2019-03-26T09:07:25.533Z,9.28
2019-03-26T09:08:25.894Z,9.17
2019-03-26T09:09:25.378Z,9.09
2019-03-26T09:10:25.280Z,9.06
2019-03-26T09:11:25.275Z,8.98
2019-03-26T09:12:25.252Z,8.72
2019-03-26T09:13:25.067Z,8.66
2019-03-26T09:14:25.024Z,8.65
2019-03-26T09:15:24.979Z,8.48
2019-03-26T09:16:24.839Z,8.42
2019-03-26T09:17:24.759Z,8.43
2019-03-26T09:18:24.655Z,8.42
2019-03-26T09:19:24.617Z,8.37
2019-03-26T09:20:24.509Z,8.40
2019-03-26T09:21:24.411Z,8.52
2019-03-26T09:22:24.383Z,8.68
2019-03-26T09:23:24.299Z,8.73
2019-03-26T09:24:24.236Z,8.73
2019-03-26T09:25:24.140Z,8.80
2019-03-26T09:26:24.056Z,8.75
2019-03-26T09:27:23.940Z,8.68
2019-03-26T09:28:23.858Z,8.55
2019-03-26T09:29:23.810Z,8.50
2019-03-26T09:30:23.687Z,8.47
2019-03-26T09:31:23.671Z,8.47
2019-03-26T09:32:23.643Z,8.29
2019-03-26T09:33:23.447Z,8.25
2019-03-26T09:34:23.358Z,8.25
2019-03-26T09:35:23.280Z,8.24
2019-03-26T09:36:23.254Z,8.18
2019-03-26T09:37:23.124Z,8.03
2019-03-26T09:38:23.054Z,7.94
2019-03-26T09:39:22.953Z,7.86
2019-03-26T09:40:22.902Z,7.79
2019-03-26T09:41:22.842Z,7.64
2019-03-26T09:42:22.761Z,7.64
2019-03-26T09:43:22.696Z,7.63
2019-03-26T09:44:22.649Z,7.57
2019-03-26T09:45:22.503Z,7.53
2019-03-26T09:46:22.471Z,7.48
2019-03-26T09:47:22.337Z,7.44
2019-03-26T09:48:22.232Z,7.47
2019-03-26T09:49:22.189Z,7.48
2019-03-26T09:50:22.080Z,7.48
2019-03-26T09:51:21.992Z,7.45
2019-03-26T09:52:21.912Z,7.53
2019-03-26T09:53:21.828Z,7.44
2019-03-26T09:54:21.822Z,7.42
2019-03-26T09:55:21.742Z,7.44
2019-03-26T09:56:29.269Z,7.39
2019-03-26T09:57:21.563Z,7.41
2019-03-26T09:58:21.478Z,7.45
2019-03-26T09:59:21.397Z,7.42
2019-03-26T10:00:21.331Z,7.49
2019-03-26T10:01:21.202Z,7.52
2019-03-26T10:02:21.124Z,7.41
2019-03-26T10:03:21.076Z,7.44
2019-03-26T10:04:21.006Z,7.47
2019-03-26T10:05:21.013Z,7.49
2019-03-26T10:06:23.564Z,7.48
2019-03-26T10:07:21.916Z,7.49
2019-03-26T10:08:20.698Z,7.49
2019-03-26T10:09:20.567Z,7.63
2019-03-26T10:10:20.500Z,7.62
2019-03-26T10:11:20.403Z,7.55
2019-03-26T10:12:20.395Z,7.72
2019-03-26T10:13:20.212Z,7.64
2019-03-26T10:14:20.234Z,7.68
2019-03-26T10:15:20.088Z,7.78
2019-03-26T10:16:19.984Z,7.70
2019-03-26T10:17:19.910Z,7.81
2019-03-26T10:18:19.844Z,7.78
2019-03-26T10:19:19.782Z,7.86
2019-03-26T10:20:19.735Z,7.90
2019-03-26T10:21:19.583Z,7.82
2019-03-26T10:22:20.139Z,7.90
2019-03-26T10:23:19.450Z,7.97
2019-03-26T10:24:19.385Z,7.91
2019-03-26T10:25:19.294Z,7.99
2019-03-26T10:26:19.190Z,7.97
2019-03-26T10:27:19.156Z,7.99
2019-03-26T10:28:19.047Z,8.14
2019-03-26T10:29:29.665Z,8.17
2019-03-26T10:30:18.846Z,8.21
2019-03-26T10:31:18.825Z,8.48
2019-03-26T10:32:18.697Z,8.62
2019-03-26T10:33:18.713Z,8.82
2019-03-26T10:34:18.647Z,9.19
2019-03-26T10:35:18.528Z,9.40
2019-03-26T10:36:18.390Z,9.50
2019-03-26T10:37:18.459Z,9.65
2019-03-26T10:38:18.278Z,9.82
2019-03-26T10:39:20.094Z,9.79
2019-03-26T10:40:18.128Z,9.68
2019-03-26T10:41:18.824Z,9.67
2019-03-26T10:42:17.900Z,9.61
2019-03-26T10:43:17.842Z,9.52
2019-03-26T10:44:17.754Z,9.52
2019-03-26T10:45:17.752Z,9.50
2019-03-26T10:46:17.638Z,9.50
2019-03-26T10:47:17.492Z,9.38
2019-03-26T10:48:17.422Z,9.35
2019-03-26T10:49:17.330Z,9.40
2019-03-26T10:50:17.305Z,9.42
2019-03-26T10:51:17.241Z,9.35
2019-03-26T10:52:17.136Z,9.34
2019-03-26T10:53:17.049Z,9.13
2019-03-26T10:54:16.951Z,9.13
2019-03-26T10:55:16.853Z,9.19
2019-03-26T10:56:16.818Z,9.09
2019-03-26T10:57:16.768Z,9.02
2019-03-26T10:58:16.646Z,8.90
2019-03-26T10:59:16.593Z,8.76
2019-03-26T11:00:16.461Z,8.82
2019-03-26T11:01:16.405Z,8.79
2019-03-26T11:02:16.296Z,8.61
2019-03-26T11:03:16.228Z,8.54
2019-03-26T11:04:16.185Z,8.58
2019-03-26T11:05:16.122Z,8.60
2019-03-26T11:06:16.058Z,8.65
2019-03-26T11:07:15.952Z,8.60
2019-03-26T11:08:15.817Z,8.66
2019-03-26T11:09:24.084Z,8.61
2019-03-26T11:10:15.728Z,8.61
2019-03-26T11:11:15.656Z,8.65
2019-03-26T11:12:15.500Z,8.68
2019-03-26T11:13:15.527Z,8.75
2019-03-26T11:14:15.353Z,8.76
2019-03-26T11:15:15.309Z,8.75
2019-03-26T11:16:15.235Z,8.75
2019-03-26T11:17:15.180Z,8.70
2019-03-26T11:18:15.062Z,8.77
2019-03-26T11:19:14.950Z,8.77
2019-03-26T11:20:14.911Z,8.62
2019-03-26T11:21:14.814Z,8.72
2019-03-26T11:22:14.817Z,8.61
2019-03-26T11:23:14.693Z,8.66
2019-03-26T11:24:14.578Z,8.65
2019-03-26T11:25:14.472Z,8.72
2019-03-26T11:26:14.379Z,8.84
2019-03-26T11:27:14.338Z,9.00
2019-03-26T11:28:14.247Z,9.22
2019-03-26T11:29:14.182Z,9.38
2019-03-26T11:30:14.156Z,9.71
2019-03-26T11:31:13.988Z,9.90
2019-03-26T11:32:13.928Z,9.90
2019-03-26T11:33:13.866Z,10.04
2019-03-26T11:34:13.734Z,9.93
2019-03-26T11:35:13.665Z,9.96
2019-03-26T11:36:13.586Z,10.01
2019-03-26T11:37:13.505Z,9.93
2019-03-26T11:38:13.476Z,9.88
2019-03-26T11:39:13.338Z,10.07
2019-03-26T11:40:13.330Z,10.03
2019-03-26T11:41:13.221Z,10.10
2019-03-26T11:42:13.101Z,10.00
2019-03-26T11:43:13.034Z,10.00
2019-03-26T11:44:12.978Z,9.90
2019-03-26T11:45:12.922Z,9.89
2019-03-26T11:46:12.821Z,9.82
2019-03-26T11:47:12.747Z,9.68
2019-03-26T11:48:12.639Z,9.61
2019-03-26T11:49:12.634Z,9.56
2019-03-26T11:50:12.502Z,9.42
2019-03-26T11:51:12.427Z,9.64
2019-03-26T11:52:12.320Z,9.71
2019-03-26T11:53:12.225Z,9.50
2019-03-26T11:54:12.150Z,9.35
2019-03-26T11:55:12.140Z,9.28
2019-03-26T11:56:11.987Z,9.16
2019-03-26T11:57:11.907Z,9.09
2019-03-26T11:58:11.833Z,8.98
2019-03-26T11:59:11.760Z,8.98
2019-03-26T12:00:11.676Z,8.97
2019-03-26T12:01:11.600Z,8.94
2019-03-26T12:02:11.602Z,8.84
2019-03-26T12:03:11.446Z,8.87
2019-03-26T12:04:11.415Z,8.85
2019-03-26T12:05:11.275Z,9.00
2019-03-26T12:06:11.233Z,8.94
2019-03-26T12:07:11.171Z,9.06
2019-03-26T12:08:11.038Z,9.16
2019-03-26T12:09:10.974Z,9.37
2019-03-26T12:10:10.905Z,9.52
2019-03-26T12:11:10.845Z,9.58
2019-03-26T12:12:10.815Z,9.58
2019-03-26T12:13:10.679Z,9.49
2019-03-26T12:14:10.609Z,9.52
2019-03-26T12:15:10.553Z,9.61
2019-03-26T12:16:10.448Z,9.63
2019-03-26T12:17:10.338Z,9.65
2019-03-26T12:18:10.284Z,9.75
2019-03-26T12:19:10.208Z,9.78
2019-03-26T12:20:10.085Z,9.88
2019-03-26T12:21:10.006Z,9.80
2019-03-26T12:22:09.941Z,10.01
2019-03-26T12:23:09.896Z,10.01
2019-03-26T12:24:09.772Z,10.03
2019-03-26T12:25:09.718Z,9.92
2019-03-26T12:26:09.647Z,9.88
2019-03-26T12:27:09.529Z,9.89
2019-03-26T12:28:09.544Z,9.89
2019-03-26T12:29:09.373Z,10.00
2019-03-26T12:30:09.302Z,10.08
2019-03-26T12:31:09.217Z,10.08
2019-03-26T12:32:09.135Z,10.19
2019-03-26T12:33:09.047Z,10.25
2019-03-26T12:34:09.006Z,10.28
2019-03-26T12:35:08.965Z,10.29
2019-03-26T12:36:08.908Z,10.39
2019-03-26T12:37:08.750Z,10.53
2019-03-26T12:38:08.655Z,10.53
2019-03-26T12:39:08.637Z,10.59
2019-03-26T12:40:08.494Z,10.53
2019-03-26T12:41:08.626Z,10.46
2019-03-26T12:42:08.397Z,10.53
2019-03-26T12:43:08.263Z,10.47
2019-03-26T12:44:08.181Z,10.44
2019-03-26T12:45:08.152Z,10.39
2019-03-26T12:46:08.047Z,10.34
2019-03-26T12:47:08.010Z,10.26
2019-03-26T12:48:07.945Z,10.13
2019-03-26T12:49:07.789Z,10.18
2019-03-26T12:50:07.711Z,9.92
2019-03-26T12:51:07.674Z,10.03
2019-03-26T12:52:07.554Z,9.93
2019-03-26T12:53:07.557Z,9.90
2019-03-26T12:54:07.406Z,9.86
2019-03-26T12:55:07.315Z,9.89
2019-03-26T12:56:07.237Z,9.85
2019-03-26T12:57:07.199Z,9.89
2019-03-26T12:58:07.124Z,9.89
2019-03-26T12:59:07.162Z,9.93
2019-03-26T13:00:06.918Z,9.83
2019-03-26T13:01:06.857Z,9.90
2019-03-26T13:02:06.808Z,9.88
2019-03-26T13:03:06.812Z,9.93
2019-03-26T13:04:12.510Z,10.22
2019-03-26T13:05:06.547Z,10.31
2019-03-26T13:06:06.495Z,10.41
2019-03-26T13:07:06.445Z,10.22
2019-03-26T13:08:06.338Z,10.23
2019-03-26T13:09:06.240Z,10.10
2019-03-26T13:10:13.659Z,10.08
2019-03-26T13:11:06.052Z,9.89
2019-03-26T13:12:05.982Z,9.89
2019-03-26T13:13:05.885Z,9.83
2019-03-26T13:14:05.905Z,9.70
2019-03-26T13:15:05.754Z,9.55